Time;durP1;ratioP1;P1;durP2;ratioP2;P2;SDS_P1;SDS_P2;PMS_P1;PMS_P2;Temp;Humidity;BMP_temperature;BMP_pressure;BME280_temperature;BME280_humidity;BME280_pressure;Samples;Min_cycle;Max_cycle;Signal;HPM_P1;HPM_P2
2024/01/03 00:00:55;;;;;;;95.90;49.80;;;15.30;99.90;;;;;;5024986;28;20057;-64
2024/01/03 00:03:22;;;;;;;73.78;39.35;;;15.60;99.90;;;;;;5026665;28;20530;-64
2024/01/03 00:05:48;;;;;;;100.43;54.63;;;16.10;99.90;;;;;;5026600;28;20053;-65
2024/01/03 00:08:36;;;;;;;103.82;47.15;;;15.40;99.90;;;;;;5030392;28;20051;-63
2024/01/03 00:11:02;;;;;;;112.78;51.03;;;15.40;99.90;;;;;;5026816;28;20041;-63
2024/01/03 00:16:17;;;;;;;91.30;59.53;;;15.60;99.90;;;;;;5028662;28;20060;-64
2024/01/03 00:19:00;;;;;;;117.68;63.28;;;15.60;99.90;;;;;;5028517;28;20045;-64
2024/01/03 00:21:29;;;;;;;109.95;60.65;;;15.40;99.90;;;;;;5030107;28;20445;-64
2024/01/03 00:23:56;;;;;;;104.97;56.28;;;16.10;99.90;;;;;;5040596;28;20094;-64
2024/01/03 00:26:33;;;;;;;110.22;59.20;;;15.30;99.90;;;;;;5047662;28;20095;-64
2024/01/03 00:28:59;;;;;;;104.00;55.28;;;15.60;99.90;;;;;;5029984;28;20452;-64
2024/01/03 00:31:41;;;;;;;108.38;55.55;;;15.40;99.90;;;;;;5029784;28;20625;-63
2024/01/03 00:34:18;;;;;;;104.28;60.75;;;15.50;99.90;;;;;;5029845;28;20470;-64
2024/01/03 00:36:47;;;;;;;95.47;54.25;;;15.40;99.90;;;;;;5028525;28;20049;-63
2024/01/03 00:39:13;;;;;;;117.07;57.72;;;15.40;99.90;;;;;;5028464;28;20042;-63
2024/01/03 00:41:39;;;;;;;101.95;59.00;;;15.40;99.90;;;;;;5030870;28;20092;-64
2024/01/03 00:44:04;;;;;;;112.38;62.38;;;15.80;99.90;;;;;;5028479;28;20081;-64
2024/01/03 00:46:30;;;;;;;102.80;59.75;;;15.50;99.90;;;;;;5028805;28;20053;-64
2024/01/03 00:48:56;;;;;;;112.82;58.42;;;15.60;99.90;;;;;;5028401;28;20041;-64
2024/01/03 00:51:22;;;;;;;112.25;62.83;;;15.50;99.90;;;;;;5033503;28;20037;-66
2024/01/03 00:53:48;;;;;;;103.00;56.55;;;15.50;99.90;;;;;;5048014;28;20123;-64
2024/01/03 00:56:13;;;;;;;103.63;61.28;;;15.40;99.90;;;;;;5033696;28;20053;-63
2024/01/03 00:58:40;;;;;;;100.53;54.38;;;15.50;99.90;;;;;;5028465;28;20072;-64
2024/01/03 01:01:05;;;;;;;112.72;58.17;;;15.50;99.90;;;;;;5026761;28;20060;-64
2024/01/03 01:03:31;;;;;;;97.25;53.30;;;15.50;99.90;;;;;;5031548;28;20511;-64
2024/01/03 01:05:57;;;;;;;98.90;54.85;;;15.40;99.90;;;;;;5047778;28;20045;-63
2024/01/03 01:08:23;;;;;;;101.18;54.80;;;15.40;99.90;;;;;;5048256;28;20045;-64
2024/01/03 01:10:48;;;;;;;92.35;50.70;;;15.40;99.90;;;;;;5035737;28;20048;-63
2024/01/03 01:13:14;;;;;;;96.07;54.88;;;15.30;99.90;;;;;;5027733;28;20049;-63
2024/01/03 01:15:39;;;;;;;96.03;56.08;;;15.50;99.90;;;;;;5028373;28;20094;-64
2024/01/03 01:18:05;;;;;;;92.45;52.83;;;15.70;99.90;;;;;;5029330;28;20552;-64
2024/01/03 01:20:30;;;;;;;86.90;53.67;;;15.60;99.90;;;;;;5044878;28;20037;-65
2024/01/03 01:22:56;;;;;;;79.28;48.55;;;15.70;99.90;;;;;;5045095;28;20041;-63
2024/01/03 01:25:22;;;;;;;84.20;50.42;;;15.70;99.90;;;;;;5036994;28;20378;-64
2024/01/03 01:27:47;;;;;;;86.20;49.00;;;15.60;99.90;;;;;;5028205;28;20052;-65
2024/01/03 01:30:13;;;;;;;77.03;48.03;;;15.80;99.90;;;;;;5028162;28;20415;-64
2024/01/03 01:32:38;;;;;;;69.15;45.00;;;15.60;99.90;;;;;;5028703;28;20046;-64
2024/01/03 01:35:04;;;;;;;87.50;48.25;;;15.60;99.90;;;;;;5027727;28;20045;-63
2024/01/03 01:37:29;;;;;;;77.35;46.13;;;16.60;99.90;;;;;;5026108;28;20066;-65
2024/01/03 01:39:55;;;;;;;87.68;48.95;;;15.80;99.90;;;;;;5027975;28;20056;-64
2024/01/03 01:42:22;;;;;;;76.47;44.17;;;15.50;99.90;;;;;;5030717;28;20041;-65
2024/01/03 01:44:47;;;;;;;62.50;41.78;;;15.50;99.90;;;;;;5027095;28;20037;-64
2024/01/03 01:47:14;;;;;;;74.72;48.10;;;16.10;99.90;;;;;;5027578;28;20053;-64
2024/01/03 01:49:40;;;;;;;75.45;47.33;;;15.50;99.90;;;;;;5028466;28;20143;-64
2024/01/03 01:52:13;;;;;;;74.75;46.92;;;15.80;99.90;;;;;;5028551;28;20060;-64
2024/01/03 01:54:38;;;;;;;72.70;43.30;;;15.90;99.90;;;;;;5038454;28;20041;-64
2024/01/03 01:57:04;;;;;;;62.33;41.72;;;15.80;99.90;;;;;;5045469;28;20048;-63
2024/01/03 01:59:30;;;;;;;73.72;43.97;;;15.90;99.90;;;;;;5048500;28;20069;-64
2024/01/03 02:01:57;;;;;;;76.93;49.25;;;15.80;99.90;;;;;;5048417;28;20723;-65
2024/01/03 02:04:23;;;;;;;88.60;48.00;;;15.90;99.90;;;;;;5048675;28;20044;-64
2024/01/03 02:06:49;;;;;;;69.15;44.42;;;15.60;99.90;;;;;;5046220;28;20041;-64
2024/01/03 02:09:15;;;;;;;82.65;46.42;;;15.60;99.90;;;;;;5031877;28;20041;-64
2024/01/03 02:11:45;;;;;;;79.65;47.10;;;15.90;99.90;;;;;;5045584;28;20048;-63
2024/01/03 02:14:10;;;;;;;73.43;43.25;;;15.90;99.90;;;;;;5027890;28;20045;-63
2024/01/03 02:16:36;;;;;;;70.28;44.75;;;15.50;99.90;;;;;;5046561;28;20063;-64
2024/01/03 02:19:04;;;;;;;76.18;43.42;;;15.50;99.90;;;;;;5047734;28;20041;-63
2024/01/03 02:21:30;;;;;;;78.38;44.88;;;15.60;99.90;;;;;;5047718;28;20457;-64
2024/01/03 02:23:56;;;;;;;73.72;41.22;;;16.10;99.90;;;;;;5046061;28;20124;-63
2024/01/03 02:26:21;;;;;;;62.58;38.28;;;16.00;99.90;;;;;;5046814;28;20528;-65
2024/01/03 02:28:47;;;;;;;81.00;42.47;;;16.00;99.90;;;;;;5027478;28;20087;-64
2024/01/03 02:31:12;;;;;;;59.67;39.42;;;15.70;99.90;;;;;;5045823;28;20048;-63
2024/01/03 02:33:38;;;;;;;79.35;43.20;;;15.60;99.90;;;;;;5029528;28;20094;-63
2024/01/03 02:36:04;;;;;;;81.82;47.42;;;16.10;99.90;;;;;;5046758;28;20040;-64
2024/01/03 02:38:29;;;;;;;75.88;48.67;;;15.70;99.90;;;;;;5046765;28;20518;-63
2024/01/03 02:40:55;;;;;;;78.28;47.60;;;16.00;99.90;;;;;;5047316;28;20087;-63
2024/01/03 02:43:21;;;;;;;75.10;47.00;;;16.40;99.90;;;;;;5046033;28;20128;-65
2024/01/03 02:45:46;;;;;;;72.07;46.15;;;15.90;99.90;;;;;;5045417;28;20613;-63
2024/01/03 02:48:12;;;;;;;80.43;46.22;;;16.30;99.90;;;;;;5044415;28;20052;-65
2024/01/03 02:50:37;;;;;;;68.25;45.85;;;16.30;99.90;;;;;;5047416;28;20052;-64
2024/01/03 02:53:03;;;;;;;75.07;44.72;;;15.70;99.90;;;;;;5046882;28;20463;-65
2024/01/03 02:55:28;;;;;;;70.85;46.22;;;16.00;99.90;;;;;;5028788;28;20411;-65
2024/01/03 02:57:54;;;;;;;70.32;44.42;;;15.80;99.90;;;;;;5045192;28;20041;-64
2024/01/03 03:00:20;;;;;;;72.55;49.38;;;15.70;99.90;;;;;;5046975;28;20057;-64
2024/01/03 03:02:45;;;;;;;79.85;49.25;;;15.90;99.90;;;;;;5044397;28;20448;-63
2024/01/03 03:05:11;;;;;;;71.35;47.25;;;15.70;99.90;;;;;;5026895;28;20045;-64
2024/01/03 03:07:37;;;;;;;79.78;50.63;;;15.80;99.90;;;;;;5035088;28;20068;-64
2024/01/03 03:10:03;;;;;;;72.72;48.83;;;16.30;99.90;;;;;;5046946;28;20037;-64
2024/01/03 03:12:29;;;;;;;80.22;44.42;;;15.80;99.90;;;;;;5044202;28;20048;-64
2024/01/03 03:14:54;;;;;;;75.93;48.22;;;15.60;99.90;;;;;;5045626;28;20120;-63
2024/01/03 03:17:20;;;;;;;70.80;49.20;;;15.60;99.90;;;;;;5046845;28;20044;-64
2024/01/03 03:19:45;;;;;;;73.13;43.00;;;15.90;99.90;;;;;;5045241;28;20514;-63
2024/01/03 03:22:11;;;;;;;68.80;46.17;;;16.00;99.90;;;;;;5046898;28;20037;-63
2024/01/03 03:24:36;;;;;;;78.43;48.30;;;15.60;99.90;;;;;;5045220;28;20052;-64
2024/01/03 03:27:02;;;;;;;74.38;48.75;;;15.50;99.90;;;;;;5046531;28;20041;-63
2024/01/03 03:29:28;;;;;;;68.65;47.72;;;15.70;99.90;;;;;;5032895;28;20049;-65
2024/01/03 03:31:53;;;;;;;72.65;48.00;;;16.10;99.90;;;;;;5027496;28;20034;-63
2024/01/03 03:34:19;;;;;;;76.55;45.78;;;15.90;99.90;;;;;;5027098;28;20037;-63
2024/01/03 03:36:45;;;;;;;67.15;48.13;;;16.00;99.90;;;;;;5025548;28;20110;-63
2024/01/03 03:39:10;;;;;;;70.82;49.63;;;16.00;99.90;;;;;;5027065;28;20053;-64
2024/01/03 03:41:37;;;;;;;78.15;52.20;;;15.50;99.90;;;;;;5025672;28;20395;-64
2024/01/03 03:44:03;;;;;;;69.55;48.70;;;16.30;99.90;;;;;;5038658;28;20040;-65
2024/01/03 03:46:30;;;;;;;73.35;48.17;;;16.10;99.90;;;;;;5040319;28;20124;-62
2024/01/03 03:48:55;;;;;;;80.57;54.38;;;15.60;99.90;;;;;;5026626;28;20120;-63
2024/01/03 03:51:21;;;;;;;84.25;54.65;;;16.40;99.90;;;;;;5040601;28;20123;-64
2024/01/03 03:53:46;;;;;;;77.03;52.78;;;15.70;99.90;;;;;;5046088;28;20470;-64
2024/01/03 03:56:23;;;;;;;83.50;55.22;;;15.70;99.90;;;;;;5046163;28;20044;-64
2024/01/03 03:58:48;;;;;;;75.70;51.47;;;16.30;99.90;;;;;;5044747;28;20049;-63
2024/01/03 04:01:14;;;;;;;70.15;50.97;;;16.30;99.90;;;;;;5046004;28;20534;-63
2024/01/03 04:03:39;;;;;;;76.88;54.00;;;16.50;99.90;;;;;;5046206;28;20453;-63
2024/01/03 04:06:05;;;;;;;72.65;54.13;;;16.10;99.90;;;;;;5033357;28;20053;-64
2024/01/03 04:08:31;;;;;;;70.88;54.33;;;15.70;99.90;;;;;;5026689;28;20414;-65
2024/01/03 04:10:56;;;;;;;73.05;52.75;;;15.50;99.90;;;;;;5030827;28;20491;-63
2024/01/03 04:13:22;;;;;;;78.25;56.65;;;15.70;99.90;;;;;;5045571;28;20483;-63
2024/01/03 04:15:48;;;;;;;75.72;50.20;;;15.50;99.90;;;;;;5046229;28;20048;-63
2024/01/03 04:18:13;;;;;;;77.00;49.40;;;16.10;99.90;;;;;;5044722;28;20392;-63
2024/01/03 04:20:39;;;;;;;64.95;46.97;;;15.70;99.90;;;;;;5045901;28;20374;-63
2024/01/03 04:23:05;;;;;;;74.72;46.67;;;16.10;99.90;;;;;;5044599;28;20056;-63
2024/01/03 04:25:30;;;;;;;75.13;48.75;;;16.00;99.90;;;;;;5042492;28;20728;-63
2024/01/03 04:27:56;;;;;;;68.00;49.25;;;15.50;99.90;;;;;;5044166;28;20041;-63
2024/01/03 04:30:21;;;;;;;72.35;48.83;;;15.70;99.90;;;;;;5044358;28;20044;-63
2024/01/03 04:32:47;;;;;;;82.43;50.70;;;15.50;99.90;;;;;;5044144;28;20098;-64
2024/01/03 04:35:12;;;;;;;78.00;49.92;;;15.40;99.90;;;;;;5045811;28;20056;-63
2024/01/03 04:37:38;;;;;;;72.65;49.40;;;16.20;99.90;;;;;;5045787;28;20048;-63
2024/01/03 04:40:04;;;;;;;75.35;52.05;;;16.10;99.90;;;;;;5045454;28;20549;-62
2024/01/03 04:42:29;;;;;;;70.32;51.83;;;15.50;23.60;;;;;;5034783;28;20582;-63
2024/01/03 04:44:55;;;;;;;69.07;51.03;;;16.10;99.90;;;;;;5024726;28;20054;-63
2024/01/03 04:47:20;;;;;;;75.78;51.67;;;15.60;99.90;;;;;;5026985;28;20048;-64
2024/01/03 04:49:46;;;;;;;72.90;49.53;;;16.10;1.00;;;;;;5026242;28;20404;-64
2024/01/03 04:52:12;;;;;;;76.18;51.72;;;15.50;99.90;;;;;;5024494;28;20159;-64
2024/01/03 04:54:37;;;;;;;75.13;49.88;;;15.50;1.00;;;;;;5025700;28;20510;-63
2024/01/03 04:57:03;;;;;;;71.40;52.58;;;16.10;99.90;;;;;;5040799;28;20418;-63
2024/01/03 04:59:29;;;;;;;73.57;53.63;;;16.40;99.90;;;;;;5045322;28;20068;-64
2024/01/03 05:01:54;;;;;;;66.75;52.15;;;16.40;99.90;;;;;;5046746;28;20065;-63
2024/01/03 05:04:20;;;;;;;67.05;50.25;;;16.40;2.50;;;;;;5048638;28;20049;-63
2024/01/03 05:06:46;;;;;;;67.55;48.53;;;14.90;99.90;;;;;;5049409;28;20574;-62
2024/01/03 05:09:11;;;;;;;75.47;51.20;;;16.20;99.90;;;;;;5049366;28;20431;-63
2024/01/03 05:11:37;;;;;;;92.15;52.47;;;14.70;1.00;;;;;;5048965;28;20037;-63
2024/01/03 05:14:02;;;;;;;88.05;49.63;;;16.00;13.20;;;;;;5048646;28;20067;-64
2024/01/03 05:16:28;;;;;;;98.20;47.72;;;16.60;99.90;;;;;;5048838;28;20044;-63
2024/01/03 05:18:53;;;;;;;89.55;49.20;;;16.30;99.90;;;;;;5033191;28;20121;-63
2024/01/03 05:21:19;;;;;;;96.65;51.38;;;15.00;1.00;;;;;;5029187;28;20046;-64
2024/01/03 05:23:44;;;;;;;96.43;53.83;;;15.20;1.00;;;;;;5032253;28;20037;-64
2024/01/03 05:26:10;;;;;;;100.95;54.85;;;16.30;1.00;;;;;;5046920;28;20045;-63
2024/01/03 05:28:36;;;;;;;90.45;56.95;;;16.10;14.70;;;;;;5048883;28;20116;-63
2024/01/03 05:31:01;;;;;;;92.32;53.97;;;15.10;26.80;;;;;;5049071;28;20072;-63
2024/01/03 05:33:27;;;;;;;89.50;54.45;;;16.00;1.00;;;;;;5035841;28;20057;-64
2024/01/03 05:35:53;;;;;;;84.38;54.45;;;16.30;1.00;;;;;;5027385;28;20060;-63
2024/01/03 05:38:18;;;;;;;90.38;55.38;;;15.00;99.90;;;;;;5028859;28;20614;-63
2024/01/03 05:40:44;;;;;;;94.22;58.60;;;15.50;99.90;;;;;;5011099;28;20060;-64
2024/01/03 05:43:11;;;;;;;94.68;58.10;;;16.10;99.80;;;;;;5028745;28;20045;-63
2024/01/03 05:45:37;;;;;;;93.50;57.03;;;16.40;1.00;;;;;;5028517;28;20056;-66
2024/01/03 05:48:03;;;;;;;100.80;57.65;;;15.50;99.90;;;;;;5037371;28;20491;-64
2024/01/03 05:50:28;;;;;;;94.35;57.83;;;15.60;1.00;;;;;;5043128;28;20044;-64
2024/01/03 05:52:54;;;;;;;96.93;54.50;;;16.70;99.90;;;;;;5033674;28;20034;-64
2024/01/03 05:55:20;;;;;;;90.10;56.38;;;15.50;99.90;;;;;;5032501;28;20080;-63
2024/01/03 05:57:45;;;;;;;86.53;54.38;;;16.40;6.30;;;;;;5033295;28;20052;-63
2024/01/03 06:00:12;;;;;;;88.72;52.30;;;16.50;1.00;;;;;;5032976;28;20037;-64
2024/01/03 06:02:37;;;;;;;85.93;55.03;;;16.50;99.90;;;;;;5028188;28;20100;-64
2024/01/03 06:05:03;;;;;;;92.30;54.70;;;16.40;99.90;;;;;;5043247;28;20076;-65
2024/01/03 06:07:29;;;;;;;87.70;49.03;;;16.50;1.00;;;;;;5033768;28;20125;-64
2024/01/03 06:09:55;;;;;;;92.57;54.47;;;15.90;99.90;;;;;;5037340;28;20044;-63
2024/01/03 06:12:21;;;;;;;90.60;52.88;;;15.90;99.90;;;;;;5041460;28;20041;-65
2024/01/03 06:14:46;;;;;;;100.53;54.03;;;15.90;1.00;;;;;;5047666;28;20040;-64
2024/01/03 06:17:12;;;;;;;90.57;52.60;;;16.40;99.90;;;;;;5041123;28;20292;-63
2024/01/03 06:19:37;;;;;;;94.20;52.17;;;16.30;99.90;;;;;;5046317;28;20747;-64
2024/01/03 06:22:03;;;;;;;89.63;50.10;;;15.90;52.40;;;;;;5042993;28;20041;-64
2024/01/03 06:24:29;;;;;;;96.30;54.80;;;15.60;1.00;;;;;;5047183;28;20091;-63
2024/01/03 06:26:55;;;;;;;95.28;55.63;;;15.40;1.00;;;;;;5044632;28;20037;-62
2024/01/03 06:29:20;;;;;;;88.72;52.20;;;16.70;99.90;;;;;;5047656;28;20048;-64
2024/01/03 06:31:46;;;;;;;99.22;54.70;;;16.60;99.90;;;;;;5044759;28;20038;-63
2024/01/03 06:34:11;;;;;;;87.40;53.42;;;16.70;99.90;;;;;;5047510;28;20118;-62
2024/01/03 06:36:37;;;;;;;91.95;52.20;;;16.50;99.90;;;;;;5042112;28;20570;-64
2024/01/03 06:39:02;;;;;;;84.80;51.03;;;16.30;99.90;;;;;;5047058;28;20045;-64
2024/01/03 06:41:28;;;;;;;82.25;52.17;;;16.60;83.80;;;;;;5041004;28;20048;-64
2024/01/03 06:43:53;;;;;;;83.45;53.08;;;15.50;1.00;;;;;;5042416;28;20056;-63
2024/01/03 06:46:19;;;;;;;78.97;50.50;;;16.10;1.00;;;;;;5047022;28;20041;-64
2024/01/03 06:48:44;;;;;;;83.43;49.10;;;16.10;1.00;;;;;;5040747;28;20040;-63
2024/01/03 06:51:10;;;;;;;88.25;49.28;;;15.80;1.00;;;;;;5047041;28;20478;-64
2024/01/03 06:53:36;;;;;;;83.70;50.47;;;16.30;99.90;;;;;;5037929;28;20037;-64
2024/01/03 06:56:01;;;;;;;85.78;49.42;;;15.60;99.90;;;;;;5036878;28;20045;-65
2024/01/03 06:58:27;;;;;;;87.68;50.08;;;15.80;99.90;;;;;;5045863;28;20099;-63
2024/01/03 07:00:52;;;;;;;89.93;51.63;;;15.80;99.90;;;;;;5045401;28;20282;-64
2024/01/03 07:03:18;;;;;;;87.97;52.25;;;16.00;99.90;;;;;;5046474;28;20040;-63
2024/01/03 07:05:44;;;;;;;90.50;53.80;;;15.90;99.90;;;;;;5043131;28;20041;-64
2024/01/03 07:08:11;;;;;;;85.85;52.20;;;15.90;99.90;;;;;;5033787;28;20049;-62
2024/01/03 07:10:36;;;;;;;82.80;53.38;;;15.80;99.90;;;;;;5036845;28;20823;-63
2024/01/03 07:13:02;;;;;;;81.68;51.92;;;15.50;99.90;;;;;;5036036;28;20033;-65
2024/01/03 07:15:28;;;;;;;84.95;52.50;;;15.90;88.90;;;;;;5028503;28;20481;-63
2024/01/03 07:17:59;;;;;;;80.40;49.83;;;16.50;57.10;;;;;;5038180;28;20052;-64
2024/01/03 07:20:25;;;;;;;81.03;49.40;;;15.90;76.90;;;;;;5035254;28;20513;-63
2024/01/03 07:22:50;;;;;;;76.90;47.65;;;15.70;99.90;;;;;;5033911;28;20131;-63
2024/01/03 07:25:17;;;;;;;74.85;50.08;;;15.60;99.90;;;;;;5035917;28;20045;-63
2024/01/03 07:27:43;;;;;;;78.40;51.28;;;16.30;93.50;;;;;;5038787;28;20064;-63
2024/01/03 07:30:09;;;;;;;84.18;49.10;;;15.90;70.40;;;;;;5039139;28;20483;-64
2024/01/03 07:32:35;;;;;;;81.72;51.33;;;16.60;40.80;;;;;;5033587;28;20086;-64
2024/01/03 07:35:01;;;;;;;84.70;47.83;;;16.40;34.20;;;;;;5040646;28;20490;-65
2024/01/03 07:37:27;;;;;;;78.53;49.17;;;15.70;1.00;;;;;;5039000;28;20045;-63
2024/01/03 07:39:52;;;;;;;78.88;47.63;;;15.50;1.00;;;;;;5038397;28;20055;-63
2024/01/03 07:42:18;;;;;;;76.40;45.67;;;15.60;1.00;;;;;;5038313;28;20260;-62
2024/01/03 07:44:43;;;;;;;77.05;48.50;;;16.40;1.00;;;;;;5035637;28;20931;-64
2024/01/03 07:47:11;;;;;;;67.50;48.95;;;16.40;1.00;;;;;;5034418;28;20554;-64
2024/01/03 07:49:37;;;;;;;64.05;46.78;;;16.10;1.00;;;;;;5030348;28;20064;-64
2024/01/03 07:52:03;;;;;;;75.03;50.00;;;16.50;1.00;;;;;;5038495;28;20036;-64
2024/01/03 07:54:29;;;;;;;73.85;50.72;;;16.40;1.00;;;;;;5035891;28;20094;-63
2024/01/03 07:56:56;;;;;;;72.18;50.05;;;16.50;1.00;;;;;;5041477;28;20457;-65
2024/01/03 07:59:22;;;;;;;75.90;51.65;;;15.70;1.00;;;;;;5039193;28;21661;-64
2024/01/03 08:01:48;;;;;;;79.95;53.05;;;16.40;1.00;;;;;;5015853;28;20052;-66
2024/01/03 08:04:16;;;;;;;81.50;53.28;;;15.30;1.00;;;;;;5035577;28;20044;-64
2024/01/03 08:06:42;;;;;;;83.78;52.72;;;15.40;1.00;;;;;;5035898;28;20153;-64
2024/01/03 08:09:07;;;;;;;82.90;49.33;;;16.10;1.00;;;;;;5036628;28;20037;-64
2024/01/03 08:11:33;;;;;;;76.38;50.35;;;15.40;1.00;;;;;;5037403;28;20503;-63
2024/01/03 08:13:59;;;;;;;83.55;49.88;;;15.30;1.00;;;;;;5038819;28;20048;-63
2024/01/03 08:16:24;;;;;;;80.72;49.20;;;16.20;1.00;;;;;;5035293;28;20045;-68
2024/01/03 08:18:50;;;;;;;79.75;50.10;;;15.90;1.00;;;;;;5034495;28;20044;-66
2024/01/03 08:21:15;;;;;;;82.18;50.90;;;15.50;1.00;;;;;;5036461;28;20053;-66
2024/01/03 08:23:42;;;;;;;79.00;48.97;;;16.10;1.00;;;;;;5036510;28;20044;-66
2024/01/03 08:26:09;;;;;;;84.70;49.80;;;15.40;1.00;;;;;;5029950;28;20487;-66
2024/01/03 08:28:41;;;;;;;79.63;51.28;;;16.30;1.00;;;;;;5036078;28;20124;-66
2024/01/03 08:31:15;;;;;;;76.00;46.22;;;16.40;1.00;;;;;;5034703;28;20100;-66
2024/01/03 08:33:41;;;;;;;81.70;49.80;;;15.70;1.00;;;;;;5039042;28;20090;-66
2024/01/03 08:36:11;;;;;;;78.80;49.75;;;16.40;1.00;;;;;;5038524;28;20450;-67
2024/01/03 08:38:36;;;;;;;83.50;51.17;;;15.60;1.00;;;;;;5039248;28;20041;-66
2024/01/03 08:41:02;;;;;;;79.95;49.67;;;15.70;1.00;;;;;;5034277;28;20106;-68
2024/01/03 08:43:28;;;;;;;85.07;50.90;;;16.10;1.00;;;;;;5039328;28;20044;-66
2024/01/03 08:45:53;;;;;;;86.55;51.45;;;16.40;1.00;;;;;;5034127;28;20049;-65
2024/01/03 08:48:19;;;;;;;82.57;51.25;;;16.00;1.00;;;;;;5020103;28;20056;-66
2024/01/03 08:50:44;;;;;;;85.55;49.78;;;16.40;1.00;;;;;;5040725;28;20112;-66
2024/01/03 08:53:10;;;;;;;86.45;51.90;;;15.60;1.00;;;;;;5040914;28;20037;-66
2024/01/03 08:55:36;;;;;;;86.88;50.75;;;16.20;1.00;;;;;;5038315;28;20051;-66
2024/01/03 08:58:02;;;;;;;83.80;48.83;;;16.20;1.00;;;;;;5042453;28;20038;-66
2024/01/03 09:00:27;;;;;;;82.88;48.95;;;15.60;1.00;;;;;;5038700;28;20144;-67
2024/01/03 09:02:57;;;;;;;74.38;47.10;;;16.50;1.00;;;;;;5040976;28;20135;-66
2024/01/03 09:05:22;;;;;;;75.95;48.55;;;17.40;1.00;;;;;;5042373;28;20079;-65
2024/01/03 09:07:49;;;;;;;67.35;46.83;;;16.30;1.00;;;;;;5040110;28;20115;-67
2024/01/03 09:10:15;;;;;;;76.00;48.13;;;15.50;99.90;;;;;;5038489;28;20124;-66
2024/01/03 09:12:40;;;;;;;75.45;49.20;;;16.40;99.90;;;;;;5039635;28;20140;-65
2024/01/03 09:15:09;;;;;;;82.43;49.08;;;16.10;1.00;;;;;;5018591;28;20474;-66
2024/01/03 09:17:35;;;;;;;74.10;48.00;;;15.70;1.00;;;;;;5040167;28;20425;-66
2024/01/03 09:20:01;;;;;;;68.32;48.45;;;15.80;1.00;;;;;;5041116;28;20047;-65
2024/01/03 09:22:26;;;;;;;68.72;45.92;;;15.80;1.00;;;;;;5040922;28;20409;-68
2024/01/03 09:24:52;;;;;;;68.38;44.97;;;16.60;99.90;;;;;;5040242;28;20040;-66
2024/01/03 09:27:17;;;;;;;69.60;44.75;;;16.40;99.90;;;;;;5035655;28;20795;-66
2024/01/03 09:29:43;;;;;;;72.53;47.65;;;15.80;99.90;;;;;;5038574;28;20079;-65
2024/01/03 09:32:09;;;;;;;73.80;46.92;;;15.80;99.90;;;;;;5041694;28;20041;-65
2024/01/03 09:34:39;;;;;;;83.85;44.95;;;15.80;99.90;;;;;;5037813;28;20045;-65
2024/01/03 09:37:06;;;;;;;68.60;44.92;;;16.30;99.90;;;;;;5035972;28;20395;-65
2024/01/03 09:39:32;;;;;;;64.43;46.05;;;15.80;99.90;;;;;;5037553;28;20049;-66
2024/01/03 09:41:58;;;;;;;59.47;43.22;;;17.10;99.90;;;;;;5037703;28;20415;-66
2024/01/03 09:44:26;;;;;;;60.80;42.90;;;16.70;99.90;;;;;;5033849;28;20038;-66
2024/01/03 09:46:52;;;;;;;56.85;44.05;;;16.00;99.90;;;;;;5033652;28;20051;-65
2024/01/03 09:49:18;;;;;;;69.07;45.38;;;16.40;99.90;;;;;;5037603;28;20037;-65
2024/01/03 09:51:46;;;;;;;68.30;45.85;;;16.50;99.90;;;;;;5039493;28;20055;-66
2024/01/03 09:54:12;;;;;;;65.25;48.42;;;16.50;99.90;;;;;;5033018;28;20033;-66
2024/01/03 09:56:40;;;;;;;71.68;47.50;;;16.50;99.90;;;;;;5037114;28;20072;-67
2024/01/03 09:59:06;;;;;;;73.90;51.00;;;16.30;99.90;;;;;;5038815;28;20055;-65
2024/01/03 10:01:32;;;;;;;78.38;48.95;;;16.20;99.90;;;;;;5033714;28;20092;-65
2024/01/03 10:03:58;;;;;;;72.28;45.58;;;16.30;99.90;;;;;;5037086;28;20484;-66
2024/01/03 10:06:24;;;;;;;76.60;45.25;;;16.70;99.90;;;;;;5018123;28;20812;-66
2024/01/03 10:08:57;;;;;;;80.35;45.60;;;16.20;99.90;;;;;;5037758;28;20033;-65
2024/01/03 10:11:23;;;;;;;79.13;46.05;;;16.40;99.90;;;;;;5040273;28;20131;-66
2024/01/03 10:13:52;;;;;;;74.95;46.78;;;17.00;99.90;;;;;;5036336;28;20037;-66
2024/01/03 10:16:23;;;;;;;73.75;44.92;;;16.40;99.90;;;;;;5034727;28;20167;-65
2024/01/03 10:19:08;;;;;;;69.35;44.25;;;16.30;99.90;;;;;;5038268;28;20425;-66
2024/01/03 10:21:36;;;;;;;80.95;47.38;;;16.70;99.90;;;;;;5022592;28;20052;-65
2024/01/03 10:24:05;;;;;;;74.88;44.65;;;16.90;99.90;;;;;;5033712;28;20049;-66
2024/01/03 10:26:31;;;;;;;72.90;44.25;;;16.20;99.90;;;;;;5035964;28;20060;-67
2024/01/03 10:29:16;;;;;;;72.38;45.15;;;16.70;99.90;;;;;;5034730;28;20495;-66
2024/01/03 10:31:42;;;;;;;71.22;42.92;;;16.50;99.90;;;;;;5035117;28;20045;-66
2024/01/03 10:34:15;;;;;;;70.53;44.58;;;16.70;99.90;;;;;;5037196;28;20735;-67
2024/01/03 10:36:42;;;;;;;76.57;45.58;;;16.40;99.90;;;;;;5035530;28;20056;-65
2024/01/03 10:39:14;;;;;;;78.03;45.83;;;16.90;99.90;;;;;;5032985;28;20068;-66
2024/01/03 10:41:43;;;;;;;74.55;45.45;;;16.90;95.30;;;;;;5037886;28;20052;-66
2024/01/03 10:44:12;;;;;;;76.03;44.05;;;16.30;95.90;;;;;;5035809;28;20052;-67
2024/01/03 10:46:38;;;;;;;82.18;46.33;;;16.90;99.90;;;;;;5036957;28;20048;-66
2024/01/03 10:49:06;;;;;;;78.10;46.55;;;16.40;99.90;;;;;;5015150;28;20033;-66
2024/01/03 10:51:34;;;;;;;77.88;47.60;;;17.00;99.90;;;;;;5035372;28;20045;-66
2024/01/03 10:54:01;;;;;;;70.43;46.38;;;16.90;99.90;;;;;;5036911;28;20041;-67
2024/01/03 10:56:29;;;;;;;75.47;47.67;;;16.30;99.90;;;;;;5033803;28;20123;-67
2024/01/03 10:58:55;;;;;;;82.15;50.03;;;16.30;99.90;;;;;;5039783;28;20392;-66
2024/01/03 11:01:44;;;;;;;73.63;48.80;;;16.70;99.90;;;;;;5033002;28;20068;-65
2024/01/03 11:04:21;;;;;;;82.28;49.15;;;16.40;99.90;;;;;;5037808;28;20183;-65
2024/01/03 11:06:55;;;;;;;;;;;16.20;99.90;;;;;;5036607;28;20067;-65
2024/01/03 11:09:21;;;;;;;73.93;48.28;;;16.20;99.90;;;;;;5036922;28;19932;-68
2024/01/03 11:11:47;;;;;;;70.88;49.75;;;16.30;99.90;;;;;;5036200;28;20048;-66
2024/01/03 11:14:19;;;;;;;68.47;48.88;;;16.70;99.90;;;;;;5037286;28;20083;-65
2024/01/03 11:16:45;;;;;;;69.43;46.55;;;16.30;99.90;;;;;;5035417;28;20167;-66
2024/01/03 11:19:11;;;;;;;69.88;47.70;;;16.30;99.90;;;;;;5042240;28;20045;-65
2024/01/03 11:21:39;;;;;;;77.50;48.47;;;16.60;99.90;;;;;;5036194;28;20395;-66
2024/01/03 11:24:28;;;;;;;77.60;48.05;;;16.90;99.90;;;;;;5034787;28;21078;-66
2024/01/03 11:26:57;;;;;;;77.20;48.22;;;16.30;99.90;;;;;;5034368;28;20569;-66
2024/01/03 11:29:44;;;;;;;76.65;47.03;;;16.60;99.90;;;;;;5036639;28;20037;-65
2024/01/03 11:32:13;;;;;;;78.22;49.28;;;16.50;99.90;;;;;;5032918;28;20442;-66
2024/01/03 11:34:40;;;;;;;79.72;50.15;;;16.50;99.90;;;;;;5033954;28;20041;-66
2024/01/03 11:37:26;;;;;;;77.90;48.97;;;16.40;99.90;;;;;;5033393;28;20050;-67
2024/01/03 11:39:57;;;;;;;76.57;51.88;;;17.00;99.90;;;;;;5031631;28;20057;-66
2024/01/03 11:42:30;;;;;;;74.22;50.17;;;16.70;99.90;;;;;;5035510;28;20041;-65
2024/01/03 11:45:13;;;;;;;77.47;48.92;;;16.90;99.90;;;;;;5036288;28;20045;-66
2024/01/03 11:47:40;;;;;;;77.90;50.15;;;16.90;99.90;;;;;;5033850;28;20400;-66
2024/01/03 11:50:08;;;;;;;79.18;47.63;;;17.10;99.90;;;;;;5028377;28;20041;-65
2024/01/03 11:52:48;;;;;;;72.80;48.42;;;16.50;99.90;;;;;;5035150;28;20087;-64
2024/01/03 11:55:16;;;;;;;73.70;50.25;;;16.40;99.90;;;;;;5036341;28;20048;-67
2024/01/03 11:57:47;;;;;;;66.95;47.22;;;16.40;98.10;;;;;;5035090;28;20126;-64
2024/01/03 12:00:15;;;;;;;68.30;48.15;;;16.50;93.80;;;;;;5038712;28;20033;-65
2024/01/03 12:02:55;;;;;;;71.85;43.17;;;16.40;73.60;;;;;;5036194;28;20052;-65
2024/01/03 12:05:22;;;;;;;70.55;46.95;;;16.50;31.80;;;;;;5034400;28;20406;-66
2024/01/03 12:07:49;;;;;;;70.75;46.15;;;16.90;24.60;;;;;;5035255;28;20044;-67
2024/01/03 12:10:15;;;;;;;72.90;45.28;;;16.60;17.90;;;;;;5040495;28;20640;-64
2024/01/03 12:12:41;;;;;;;75.72;45.47;;;16.70;17.00;;;;;;5023517;28;20084;-65
2024/01/03 12:15:08;;;;;;;69.45;47.55;;;17.10;7.30;;;;;;5041010;28;20144;-65
2024/01/03 12:17:34;;;;;;;70.22;45.42;;;16.90;5.20;;;;;;5027216;28;20045;-66
2024/01/03 12:20:07;;;;;;;69.00;46.33;;;16.50;1.00;;;;;;5041464;28;20110;-65
2024/01/03 12:22:34;;;;;;;73.22;47.20;;;16.90;1.00;;;;;;5044382;28;20785;-66
2024/01/03 12:25:01;;;;;;;71.68;43.25;;;17.50;1.00;;;;;;5045171;28;20048;-66
2024/01/03 12:27:27;;;;;;;60.15;42.50;;;16.90;1.00;;;;;;5040665;28;20037;-67
2024/01/03 12:30:16;;;;;;;57.72;39.40;;;16.90;1.00;;;;;;5040383;28;20128;-66